Time;durP1;ratioP1;P1;durP2;ratioP2;P2;SDS_P1;SDS_P2;PMS_P1;PMS_P2;Temp;Humidity;BMP_temperature;BMP_pressure;BME280_temperature;BME280_humidity;BME280_pressure;Samples;Min_cycle;Max_cycle;Signal;HPM_P1;HPM_P2
2021/07/12 00:00:10;;;;;;;3.60;3.45;;;21.70;77.20;;;;;;5068755;28;20563;-75
2021/07/12 00:02:35;;;;;;;3.30;3.20;;;21.60;77.40;;;;;;5066251;28;20191;-74
2021/07/12 00:05:02;;;;;;;3.38;3.28;;;21.60;77.50;;;;;;5060995;28;20186;-75
2021/07/12 00:07:28;;;;;;;3.80;3.50;;;21.60;77.30;;;;;;5068473;28;20193;-75
2021/07/12 00:09:54;;;;;;;3.10;3.00;;;21.60;77.40;;;;;;5068900;28;20179;-75
2021/07/12 00:12:19;;;;;;;3.65;3.40;;;21.60;77.30;;;;;;5068338;28;20179;-75
2021/07/12 00:14:45;;;;;;;3.50;3.20;;;21.60;77.40;;;;;;5068224;28;20181;-74
2021/07/12 00:17:11;;;;;;;3.25;3.05;;;21.60;77.80;;;;;;5068100;28;20175;-75
2021/07/12 00:19:37;;;;;;;3.33;3.22;;;21.50;77.90;;;;;;5066572;28;20221;-75
2021/07/12 00:22:03;;;;;;;3.38;3.20;;;21.50;77.90;;;;;;5066948;28;20214;-75
2021/07/12 00:24:29;;;;;;;4.03;3.83;;;21.50;78.90;;;;;;5066498;28;20586;-74
2021/07/12 00:26:54;;;;;;;3.63;3.42;;;21.40;78.30;;;;;;5072134;28;20201;-75
2021/07/12 00:29:20;;;;;;;3.67;3.28;;;21.40;78.40;;;;;;5074805;28;20198;-74
2021/07/12 00:31:46;;;;;;;3.55;3.33;;;21.30;79.50;;;;;;5068569;28;20270;-74
2021/07/12 00:34:12;;;;;;;3.83;3.63;;;21.30;78.60;;;;;;5067897;28;20577;-74
2021/07/12 00:36:37;;;;;;;3.42;3.33;;;21.30;78.70;;;;;;5064388;28;20186;-74
2021/07/12 00:39:04;;;;;;;3.53;3.33;;;21.20;79.00;;;;;;5054789;28;20211;-74
2021/07/12 00:41:30;;;;;;;3.95;3.65;;;21.20;78.70;;;;;;5060961;28;20576;-75
2021/07/12 00:43:56;;;;;;;4.90;3.33;;;21.20;78.80;;;;;;5061178;28;20180;-75
2021/07/12 00:46:21;;;;;;;3.92;3.67;;;21.20;78.90;;;;;;5059905;28;20209;-75
2021/07/12 00:48:47;;;;;;;4.15;3.80;;;21.20;78.90;;;;;;5053918;28;20187;-75
2021/07/12 00:51:14;;;;;;;3.33;3.13;;;21.10;79.10;;;;;;5059059;28;20595;-75
2021/07/12 00:53:40;;;;;;;4.18;3.80;;;21.10;79.10;;;;;;5064926;28;20205;-75
2021/07/12 00:56:07;;;;;;;7.13;4.00;;;21.10;79.00;;;;;;5064913;28;20183;-75
2021/07/12 00:58:33;;;;;;;3.75;3.65;;;21.10;79.10;;;;;;5067467;28;20218;-75
2021/07/12 01:01:01;;;;;;;3.60;3.50;;;21.00;79.60;;;;;;5067362;28;20175;-75
2021/07/12 01:03:27;;;;;;;3.90;3.63;;;21.00;79.20;;;;;;5059779;28;20261;-75
2021/07/12 01:05:54;;;;;;;3.72;3.47;;;21.00;79.30;;;;;;5067461;28;20273;-75
2021/07/12 01:08:20;;;;;;;3.80;3.53;;;20.90;79.40;;;;;;5059856;28;20179;-75
2021/07/12 01:11:11;;;;;;;4.30;4.05;;;20.90;79.50;;;;;;5067293;28;20221;-75
2021/07/12 01:14:27;;;;;;;3.80;3.60;;;20.90;79.10;;;;;;5067302;28;20182;-75
2021/07/12 01:17:21;;;;;;;4.10;3.80;;;20.90;80.80;;;;;;5044156;28;20199;-74
2021/07/12 01:20:06;;;;;;;6.43;3.58;;;20.90;80.20;;;;;;5037517;28;20229;-75
2021/07/12 01:22:45;;;;;;;3.85;3.65;;;20.80;79.50;;;;;;5043055;28;20271;-75
2021/07/12 01:25:48;;;;;;;3.78;3.58;;;20.80;80.10;;;;;;5049723;28;20191;-74
2021/07/12 01:28:34;;;;;;;3.63;3.40;;;20.80;80.40;;;;;;5029162;28;20218;-74
2021/07/12 01:31:30;;;;;;;4.20;3.65;;;20.80;80.40;;;;;;5035114;28;20631;-74
2021/07/12 01:34:12;;;;;;;4.20;4.00;;;20.80;79.90;;;;;;5045167;28;20187;-75
2021/07/12 01:36:51;;;;;;;4.38;4.18;;;20.80;80.00;;;;;;5043078;28;20191;-75
2021/07/12 01:39:30;;;;;;;4.18;3.88;;;20.80;79.80;;;;;;5032430;28;20688;-75
2021/07/12 01:42:22;;;;;;;3.75;3.55;;;20.80;79.80;;;;;;5042888;28;20242;-76
2021/07/12 01:45:08;;;;;;;3.80;3.70;;;20.80;79.70;;;;;;5041524;28;20207;-75
2021/07/12 01:47:41;;;;;;;3.83;3.63;;;20.80;80.00;;;;;;5034472;28;20316;-75
2021/07/12 01:50:20;;;;;;;4.07;3.78;;;20.80;79.90;;;;;;5036679;28;20195;-75
2021/07/12 01:53:02;;;;;;;8.13;3.83;;;20.80;80.10;;;;;;5061090;28;20199;-75
2021/07/12 01:56:00;;;;;;;3.90;3.65;;;20.80;80.20;;;;;;5079293;28;20190;-75
2021/07/12 01:58:32;;;;;;;3.78;3.58;;;20.80;81.80;;;;;;5023155;28;20261;-75
2021/07/12 02:00:59;;;;;;;3.80;3.60;;;20.70;80.20;;;;;;5023681;28;20765;-74
2021/07/12 02:03:28;;;;;;;3.92;3.63;;;20.70;80.60;;;;;;5013402;28;20224;-74
2021/07/12 02:05:58;;;;;;;4.40;4.20;;;20.70;80.50;;;;;;5021918;28;20183;-74
2021/07/12 02:08:25;;;;;;;4.25;4.05;;;20.60;80.60;;;;;;5012986;28;20239;-74
2021/07/12 02:10:52;;;;;;;4.13;3.92;;;20.60;81.20;;;;;;5022120;28;20183;-74
2021/07/12 02:13:18;;;;;;;4.55;4.22;;;20.50;81.30;;;;;;5013274;28;20201;-74
2021/07/12 02:15:50;;;;;;;3.90;3.67;;;20.50;81.70;;;;;;5023443;28;20273;-74
2021/07/12 02:18:16;;;;;;;4.32;3.95;;;20.40;82.60;;;;;;5017117;28;20212;-74
2021/07/12 02:20:46;;;;;;;4.43;4.03;;;20.30;81.80;;;;;;5023739;28;20184;-74
2021/07/12 02:23:12;;;;;;;5.07;4.38;;;20.20;81.90;;;;;;5023480;28;20192;-74
2021/07/12 02:25:40;;;;;;;3.78;3.63;;;20.10;82.00;;;;;;5024771;28;20287;-74
2021/07/12 02:28:07;;;;;;;4.25;3.88;;;20.10;82.20;;;;;;5017641;28;20201;-75
2021/07/12 02:30:34;;;;;;;4.45;4.13;;;20.10;82.50;;;;;;5013918;28;20673;-74
2021/07/12 02:33:00;;;;;;;4.03;3.80;;;20.00;82.50;;;;;;5023165;28;20271;-74
2021/07/12 02:35:27;;;;;;;4.88;4.57;;;19.90;83.90;;;;;;5054448;28;20212;-75
2021/07/12 02:37:55;;;;;;;4.68;4.25;;;19.90;83.30;;;;;;5054330;28;20186;-75
2021/07/12 02:40:21;;;;;;;4.47;4.28;;;19.80;82.80;;;;;;5055177;28;20679;-75
2021/07/12 02:42:52;;;;;;;4.18;3.80;;;19.80;83.80;;;;;;5062005;28;20195;-75
2021/07/12 02:45:20;;;;;;;5.13;4.10;;;19.70;83.10;;;;;;5055652;28;20640;-76
2021/07/12 02:47:46;;;;;;;4.18;3.88;;;19.70;83.30;;;;;;5079102;28;20663;-75
2021/07/12 02:50:14;;;;;;;4.63;4.22;;;19.70;83.40;;;;;;5059643;28;20594;-75
2021/07/12 02:52:47;;;;;;;4.40;4.13;;;19.70;83.40;;;;;;5084477;28;20206;-75
2021/07/12 02:55:13;;;;;;;4.45;4.05;;;19.60;83.10;;;;;;5068053;28;20217;-75
2021/07/12 02:57:40;;;;;;;4.63;4.38;;;19.60;83.20;;;;;;5071702;28;20675;-75
2021/07/12 03:00:09;;;;;;;4.18;3.88;;;19.60;83.00;;;;;;5072572;28;20194;-75
2021/07/12 03:02:35;;;;;;;5.07;3.90;;;19.60;83.10;;;;;;5068253;28;20194;-75
2021/07/12 03:05:01;;;;;;;4.47;4.18;;;19.60;83.20;;;;;;5061796;28;20206;-76
2021/07/12 03:07:32;;;;;;;4.45;3.85;;;19.60;83.10;;;;;;5071195;28;20273;-75
2021/07/12 03:10:07;;;;;;;5.03;4.55;;;19.60;82.90;;;;;;5062517;28;20229;-75
2021/07/12 03:12:42;;;;;;;4.80;4.40;;;19.60;82.90;;;;;;5067925;28;20635;-76
2021/07/12 03:15:12;;;;;;;5.25;4.35;;;19.60;82.90;;;;;;5071052;28;20684;-76
2021/07/12 03:17:42;;;;;;;5.80;4.25;;;19.60;82.80;;;;;;5072125;28;20190;-76
2021/07/12 03:20:10;;;;;;;4.05;3.78;;;19.70;82.70;;;;;;5072153;28;20187;-75
2021/07/12 03:22:38;;;;;;;4.60;4.30;;;19.70;82.70;;;;;;5072051;28;20359;-75
2021/07/12 03:25:05;;;;;;;5.55;4.03;;;19.70;82.70;;;;;;5076108;28;20253;-75
2021/07/12 03:27:32;;;;;;;4.07;3.85;;;19.70;82.80;;;;;;5063457;28;20253;-75
2021/07/12 03:30:16;;;;;;;4.35;3.92;;;19.70;82.80;;;;;;5071306;28;20174;-75
2021/07/12 03:32:45;;;;;;;4.30;4.05;;;19.70;83.20;;;;;;5065856;28;20190;-76
2021/07/12 03:35:14;;;;;;;4.55;3.83;;;19.80;82.80;;;;;;5073032;28;20174;-74
2021/07/12 03:37:40;;;;;;;4.85;4.55;;;19.80;82.80;;;;;;5058735;28;20175;-74
2021/07/12 03:40:07;;;;;;;4.43;4.22;;;19.90;82.90;;;;;;5064578;28;20184;-74
2021/07/12 03:42:34;;;;;;;4.88;4.50;;;19.90;82.80;;;;;;5064258;28;20229;-74
2021/07/12 03:45:02;;;;;;;4.57;4.28;;;19.90;82.90;;;;;;5061800;28;20679;-74
2021/07/12 03:47:32;;;;;;;4.00;3.78;;;19.90;82.90;;;;;;5057261;28;20184;-75
2021/07/12 03:50:16;;;;;;;4.35;3.95;;;19.90;82.70;;;;;;5069963;28;20190;-75
2021/07/12 03:52:44;;;;;;;4.88;4.50;;;20.00;83.40;;;;;;5071725;28;20194;-75
2021/07/12 03:55:11;;;;;;;4.10;3.90;;;20.00;82.90;;;;;;5067144;28;20553;-75
2021/07/12 03:57:38;;;;;;;4.40;4.10;;;20.00;83.10;;;;;;5068623;28;20545;-76
2021/07/12 04:00:06;;;;;;;4.53;4.05;;;20.10;83.20;;;;;;5068631;28;20228;-74
2021/07/12 04:02:32;;;;;;;4.55;4.18;;;20.10;83.20;;;;;;5064156;28;20665;-74
2021/07/12 04:04:58;;;;;;;4.32;4.07;;;20.10;83.50;;;;;;5058457;28;20184;-75
2021/07/12 04:07:24;;;;;;;5.60;4.05;;;20.10;83.60;;;;;;5067214;28;20181;-74
2021/07/12 04:09:49;;;;;;;4.63;4.32;;;20.10;83.60;;;;;;5058439;28;20262;-75
2021/07/12 04:12:23;;;;;;;4.03;3.75;;;20.10;83.70;;;;;;5066638;28;20193;-75
2021/07/12 04:14:49;;;;;;;4.95;4.47;;;20.10;83.80;;;;;;5057681;28;20207;-75
2021/07/12 04:17:15;;;;;;;7.03;4.28;;;20.10;83.90;;;;;;5066018;28;20277;-75
2021/07/12 04:19:41;;;;;;;4.57;4.18;;;20.10;84.20;;;;;;5063046;28;20726;-75
2021/07/12 04:22:06;;;;;;;4.03;3.78;;;20.10;84.20;;;;;;5066730;28;20191;-75
2021/07/12 04:24:32;;;;;;;5.05;4.03;;;20.10;84.10;;;;;;5066570;28;20555;-75
2021/07/12 04:26:57;;;;;;;4.90;4.13;;;20.10;84.20;;;;;;5065514;28;20182;-75
2021/07/12 04:29:23;;;;;;;4.68;3.97;;;20.20;84.30;;;;;;5056696;28;20193;-75
2021/07/12 04:31:49;;;;;;;4.75;4.38;;;20.20;84.30;;;;;;5063633;28;20179;-75
2021/07/12 04:34:15;;;;;;;6.53;4.38;;;20.20;84.30;;;;;;5068001;28;20214;-75
2021/07/12 04:36:41;;;;;;;4.85;4.55;;;20.30;84.90;;;;;;5061936;28;20255;-75
2021/07/12 04:39:07;;;;;;;5.15;4.75;;;20.30;84.00;;;;;;5054392;28;20269;-75
2021/07/12 04:41:34;;;;;;;5.22;4.85;;;20.30;83.80;;;;;;5059931;28;20200;-75
2021/07/12 04:44:00;;;;;;;4.15;3.95;;;20.30;83.70;;;;;;5076423;28;20195;-75
2021/07/12 04:46:26;;;;;;;4.32;4.03;;;20.30;83.80;;;;;;5060779;28;20247;-75
2021/07/12 04:48:51;;;;;;;3.92;3.72;;;20.30;84.10;;;;;;5054373;28;20618;-75
2021/07/12 04:51:18;;;;;;;4.38;4.18;;;20.30;83.90;;;;;;5060153;28;20174;-75
2021/07/12 04:53:43;;;;;;;4.82;4.53;;;20.40;83.80;;;;;;5065121;28;20270;-75
2021/07/12 04:56:09;;;;;;;4.75;4.28;;;20.40;84.00;;;;;;5065737;28;20743;-75
2021/07/12 04:58:42;;;;;;;5.80;4.70;;;20.40;83.90;;;;;;5067276;28;20280;-75
2021/07/12 05:01:07;;;;;;;4.25;3.95;;;20.50;83.90;;;;;;5066587;28;20179;-75
2021/07/12 05:03:33;;;;;;;4.35;4.15;;;20.50;83.60;;;;;;5057617;28;20179;-75
2021/07/12 05:05:59;;;;;;;4.25;3.97;;;20.60;83.50;;;;;;5067961;28;20243;-75
2021/07/12 05:08:25;;;;;;;5.13;4.82;;;20.60;83.40;;;;;;5056624;28;20187;-75
2021/07/12 05:10:51;;;;;;;6.10;4.75;;;20.70;83.30;;;;;;5066798;28;20174;-75
2021/07/12 05:13:17;;;;;;;5.28;4.65;;;20.70;83.30;;;;;;5057259;28;20563;-75
2021/07/12 05:15:43;;;;;;;5.60;5.10;;;20.80;83.10;;;;;;5066965;28;20201;-75
2021/07/12 05:18:10;;;;;;;5.80;5.40;;;20.80;83.00;;;;;;5059835;28;20761;-76
2021/07/12 05:20:36;;;;;;;5.22;4.80;;;20.90;82.70;;;;;;5066918;28;20206;-75
2021/07/12 05:23:02;;;;;;;5.53;5.00;;;20.90;82.40;;;;;;5067395;28;20209;-75
2021/07/12 05:25:28;;;;;;;5.82;5.40;;;21.00;82.50;;;;;;5070229;28;20178;-75
2021/07/12 05:27:54;;;;;;;6.13;5.55;;;21.10;82.40;;;;;;5058594;28;20180;-75
2021/07/12 05:30:20;;;;;;;6.28;5.68;;;21.10;82.40;;;;;;5067334;28;20265;-75
2021/07/12 05:32:46;;;;;;;6.20;5.70;;;21.20;82.50;;;;;;5062722;28;20207;-75
2021/07/12 05:35:12;;;;;;;5.60;4.57;;;21.20;82.10;;;;;;5068899;28;20607;-75
2021/07/12 05:37:38;;;;;;;5.78;5.30;;;21.30;81.90;;;;;;5054604;28;20176;-75
2021/07/12 05:40:05;;;;;;;6.40;5.90;;;21.40;81.70;;;;;;5062087;28;20623;-75
2021/07/12 05:42:30;;;;;;;7.22;6.30;;;21.40;81.50;;;;;;5061161;28;20719;-75
2021/07/12 05:44:56;;;;;;;5.55;5.15;;;21.50;81.30;;;;;;5062296;28;20268;-75
2021/07/12 05:47:22;;;;;;;5.13;4.82;;;21.50;80.80;;;;;;5054283;28;20183;-74
2021/07/12 05:49:48;;;;;;;10.30;6.25;;;21.60;80.90;;;;;;5062068;28;20185;-74
2021/07/12 05:52:14;;;;;;;8.30;5.95;;;21.70;80.90;;;;;;5061933;28;20171;-75
2021/07/12 05:54:39;;;;;;;7.72;6.55;;;21.70;81.10;;;;;;5062058;28;20190;-74
2021/07/12 05:57:05;;;;;;;7.10;6.40;;;21.70;80.20;;;;;;5066071;28;20265;-74
2021/07/12 05:59:31;;;;;;;6.97;5.90;;;21.70;80.40;;;;;;5066211;28;20215;-75
2021/07/12 06:01:57;;;;;;;7.15;6.55;;;21.80;80.10;;;;;;5058094;28;20593;-75
2021/07/12 06:04:22;;;;;;;10.30;7.18;;;21.80;79.90;;;;;;5065464;28;20258;-75
2021/07/12 06:06:48;;;;;;;8.35;6.45;;;21.80;79.90;;;;;;5055654;28;20680;-76
2021/07/12 06:09:14;;;;;;;6.07;5.57;;;21.80;79.70;;;;;;5063775;28;20694;-75
2021/07/12 06:11:39;;;;;;;6.55;5.90;;;21.90;79.90;;;;;;5055022;28;20259;-75
2021/07/12 06:14:05;;;;;;;6.35;5.68;;;21.90;79.80;;;;;;5063029;28;20177;-75
2021/07/12 06:16:31;;;;;;;6.50;6.00;;;22.00;79.90;;;;;;5054333;28;20676;-75
2021/07/12 06:18:57;;;;;;;7.38;6.68;;;22.10;79.70;;;;;;5062876;28;20250;-75
2021/07/12 06:21:24;;;;;;;8.57;6.70;;;22.10;79.70;;;;;;5065254;28;20258;-75
2021/07/12 06:23:50;;;;;;;8.57;6.03;;;22.20;79.60;;;;;;5065838;28;20635;-75
2021/07/12 06:26:16;;;;;;;6.25;5.85;;;22.30;79.30;;;;;;5060451;28;20211;-75
2021/07/12 06:28:41;;;;;;;7.53;6.35;;;22.30;79.10;;;;;;5060506;28;20553;-75
2021/07/12 06:31:07;;;;;;;11.40;5.80;;;22.40;78.90;;;;;;5053380;28;20578;-75
2021/07/12 06:33:33;;;;;;;9.18;5.70;;;22.50;79.10;;;;;;5066131;28;20183;-75
2021/07/12 06:35:59;;;;;;;6.25;5.80;;;22.50;78.90;;;;;;5059881;28;20562;-75
2021/07/12 06:38:24;;;;;;;9.68;6.50;;;22.60;78.80;;;;;;5058450;28;20210;-75
2021/07/12 06:40:50;;;;;;;8.30;6.50;;;22.70;79.00;;;;;;5052008;28;20577;-75
2021/07/12 06:43:16;;;;;;;6.95;6.25;;;22.70;78.50;;;;;;5064558;28;20195;-75
2021/07/12 06:45:43;;;;;;;6.78;6.00;;;22.80;78.80;;;;;;5050874;28;20183;-75
2021/07/12 06:48:09;;;;;;;6.72;5.82;;;22.90;78.50;;;;;;5056279;28;20570;-75
2021/07/12 06:50:35;;;;;;;7.10;5.78;;;22.90;78.10;;;;;;5050726;28;20180;-75
2021/07/12 06:53:01;;;;;;;6.43;5.90;;;23.00;77.80;;;;;;5064768;28;20609;-75
2021/07/12 06:55:28;;;;;;;6.75;5.93;;;23.10;77.90;;;;;;5061186;28;20236;-75
2021/07/12 06:57:54;;;;;;;8.15;6.82;;;23.10;77.50;;;;;;5064950;28;20217;-75
2021/07/12 07:00:20;;;;;;;7.63;6.13;;;23.10;77.40;;;;;;5065584;28;20199;-75
2021/07/12 07:02:45;;;;;;;6.82;5.75;;;23.10;76.90;;;;;;5060607;28;20216;-75
2021/07/12 07:05:12;;;;;;;10.48;6.50;;;23.20;76.80;;;;;;5055377;28;20245;-75
2021/07/12 07:07:37;;;;;;;6.18;5.78;;;23.20;77.00;;;;;;5065662;28;20178;-76
2021/07/12 07:10:05;;;;;;;8.23;6.28;;;23.30;76.90;;;;;;5055800;28;20194;-76
2021/07/12 07:12:30;;;;;;;7.55;5.50;;;23.30;76.80;;;;;;5060361;28;20687;-75
2021/07/12 07:14:56;;;;;;;6.28;5.68;;;23.40;76.80;;;;;;5065727;28;20198;-75
2021/07/12 07:17:22;;;;;;;7.22;6.38;;;23.50;77.20;;;;;;5065149;28;20689;-76
2021/07/12 07:19:48;;;;;;;6.65;6.05;;;23.60;77.10;;;;;;5065218;28;20218;-75
2021/07/12 07:22:13;;;;;;;7.07;6.47;;;23.60;76.90;;;;;;5065339;28;20440;-74
2021/07/12 07:24:40;;;;;;;6.07;5.57;;;23.70;76.20;;;;;;5065506;28;20638;-75
2021/07/12 07:27:05;;;;;;;7.68;5.70;;;23.80;76.30;;;;;;5064241;28;20182;-76
2021/07/12 07:29:31;;;;;;;7.20;6.00;;;23.90;76.20;;;;;;5056073;28;20195;-75
2021/07/12 07:31:57;;;;;;;7.60;6.10;;;24.00;76.30;;;;;;5071638;28;20207;-75
2021/07/12 07:34:22;;;;;;;9.00;5.97;;;24.10;76.50;;;;;;5069136;28;20217;-76
2021/07/12 07:36:48;;;;;;;6.40;6.00;;;24.20;76.00;;;;;;5064172;28;20186;-75
2021/07/12 07:39:14;;;;;;;5.82;5.43;;;24.20;76.10;;;;;;5056118;28;20218;-75
2021/07/12 07:41:40;;;;;;;7.28;6.65;;;24.30;75.80;;;;;;5062712;28;20194;-75
2021/07/12 07:44:06;;;;;;;6.53;5.82;;;24.40;75.50;;;;;;5078116;28;20248;-75
2021/07/12 07:46:33;;;;;;;5.93;5.53;;;24.50;75.20;;;;;;5062531;28;20261;-75
2021/07/12 07:49:00;;;;;;;6.35;5.90;;;24.60;75.20;;;;;;5055844;28;20188;-76
2021/07/12 07:51:26;;;;;;;6.35;5.75;;;24.70;75.20;;;;;;5064063;28;20561;-76
2021/07/12 07:53:53;;;;;;;6.72;6.05;;;24.80;74.80;;;;;;5065131;28;20253;-75
2021/07/12 07:56:19;;;;;;;5.93;5.53;;;24.80;74.20;;;;;;5055339;28;20257;-75
2021/07/12 07:58:45;;;;;;;6.25;5.65;;;24.90;74.30;;;;;;5068631;28;20306;-75
2021/07/12 08:01:10;;;;;;;6.03;5.60;;;25.00;74.70;;;;;;5066562;28;20575;-75
2021/07/12 08:03:36;;;;;;;5.20;4.90;;;25.10;74.00;;;;;;5059064;28;20182;-76
2021/07/12 08:06:02;;;;;;;6.32;5.00;;;25.20;73.20;;;;;;5068344;28;20187;-73
2021/07/12 08:08:27;;;;;;;5.07;4.78;;;25.30;73.60;;;;;;5063499;28;20266;-74
2021/07/12 08:10:53;;;;;;;5.00;4.70;;;25.30;73.00;;;;;;5069545;28;20684;-74
2021/07/12 08:13:19;;;;;;;5.78;5.25;;;25.50;73.30;;;;;;5065582;28;20190;-73
2021/07/12 08:15:44;;;;;;;5.18;4.78;;;25.50;72.00;;;;;;5069663;28;20187;-72
2021/07/12 08:18:10;;;;;;;5.05;4.68;;;25.60;72.40;;;;;;5069795;28;20288;-73
2021/07/12 08:20:37;;;;;;;5.72;5.22;;;25.70;72.00;;;;;;5069542;28;20568;-73
2021/07/12 08:23:02;;;;;;;5.28;4.97;;;25.90;70.60;;;;;;5068843;28;20178;-72
2021/07/12 08:25:29;;;;;;;8.27;5.45;;;26.00;71.40;;;;;;5068858;28;20190;-73
2021/07/12 08:27:55;;;;;;;6.40;5.10;;;26.10;70.90;;;;;;5068163;28;20183;-73
2021/07/12 08:30:22;;;;;;;4.55;4.25;;;26.20;70.70;;;;;;5067805;28;20183;-73
2021/07/12 08:32:48;;;;;;;5.80;5.20;;;26.30;70.40;;;;;;5068031;28;20633;-73
2021/07/12 08:35:15;;;;;;;5.88;5.47;;;26.40;70.70;;;;;;5068233;28;20266;-74
2021/07/12 08:37:41;;;;;;;4.80;4.40;;;26.50;70.30;;;;;;5054408;28;20188;-74
2021/07/12 08:40:09;;;;;;;3.97;3.78;;;26.60;69.40;;;;;;5060179;28;20708;-74
2021/07/12 08:42:35;;;;;;;3.92;3.40;;;26.70;69.60;;;;;;5060886;28;20199;-74
2021/07/12 08:45:02;;;;;;;3.25;3.05;;;26.80;67.90;;;;;;5058357;28;20168;-74
2021/07/12 08:47:28;;;;;;;5.07;4.68;;;26.90;68.80;;;;;;5054705;28;20191;-74
2021/07/12 08:49:54;;;;;;;5.72;4.22;;;26.90;68.70;;;;;;5058473;28;20649;-74
2021/07/12 08:52:19;;;;;;;4.13;3.92;;;27.00;68.30;;;;;;5061951;28;20181;-74
2021/07/12 08:54:45;;;;;;;4.03;3.83;;;27.10;68.30;;;;;;5063514;28;20186;-74
2021/07/12 08:57:11;;;;;;;3.72;3.38;;;27.20;66.90;;;;;;5061758;28;20183;-74
2021/07/12 08:59:42;;;;;;;4.60;3.28;;;27.30;67.00;;;;;;5067292;28;20711;-74
2021/07/12 09:02:12;;;;;;;3.50;3.40;;;27.40;65.70;;;;;;5061176;28;20651;-74
2021/07/12 09:04:47;;;;;;;5.07;3.47;;;27.50;64.70;;;;;;5065575;28;20188;-74
2021/07/12 09:07:34;;;;;;;3.92;3.80;;;27.60;64.90;;;;;;5066946;28;20666;-74
2021/07/12 09:10:09;;;;;;;5.70;4.00;;;27.70;63.40;;;;;;5060712;28;20183;-75
2021/07/12 09:12:50;;;;;;;5.22;4.65;;;27.80;64.60;;;;;;5066918;28;20721;-75
2021/07/12 09:15:22;;;;;;;4.30;4.03;;;27.90;64.50;;;;;;5066876;28;20202;-75
2021/07/12 09:17:50;;;;;;;4.22;4.07;;;28.00;64.40;;;;;;5071343;28;20578;-75
2021/07/12 09:20:33;;;;;;;4.78;4.03;;;28.10;64.80;;;;;;5066852;28;20244;-74
2021/07/12 09:23:20;;;;;;;4.53;4.22;;;28.20;65.00;;;;;;5061010;28;20233;-74
2021/07/12 09:26:03;;;;;;;4.50;4.20;;;28.30;64.10;;;;;;5067814;28;20206;-74
2021/07/12 09:28:45;;;;;;;4.32;4.03;;;28.50;63.30;;;;;;5070286;28;20695;-74
2021/07/12 09:31:36;;;;;;;3.75;3.55;;;28.60;63.20;;;;;;5077663;28;20193;-74
2021/07/12 09:34:02;;;;;;;4.15;3.85;;;28.70;60.10;;;;;;5064826;28;20191;-76
2021/07/12 09:36:31;;;;;;;4.07;3.97;;;28.80;61.10;;;;;;5063128;28;20179;-76
2021/07/12 09:38:57;;;;;;;5.30;4.30;;;28.90;61.80;;;;;;5066526;28;20257;-74
2021/07/12 09:41:30;;;;;;;4.32;4.15;;;29.00;61.60;;;;;;5066650;28;20314;-75
2021/07/12 09:44:00;;;;;;;4.20;4.00;;;29.10;61.70;;;;;;5061922;28;20661;-74
2021/07/12 09:46:29;;;;;;;4.18;3.97;;;29.30;61.50;;;;;;5057779;28;20678;-74
2021/07/12 09:49:16;;;;;;;4.70;4.38;;;29.30;60.80;;;;;;5052167;28;20179;-75
2021/07/12 09:51:43;;;;;;;4.22;3.90;;;29.50;60.90;;;;;;5065078;28;20183;-75
2021/07/12 09:54:20;;;;;;;4.35;4.07;;;29.60;60.60;;;;;;5061491;28;20183;-75
2021/07/12 09:56:47;;;;;;;4.07;3.88;;;29.70;60.40;;;;;;5065386;28;20186;-75
2021/07/12 09:59:15;;;;;;;4.20;3.90;;;29.80;60.10;;;;;;5066227;28;20655;-75
2021/07/12 10:01:54;;;;;;;4.15;3.88;;;29.90;60.30;;;;;;5075357;28;20249;-75
2021/07/12 10:04:24;;;;;;;3.85;3.65;;;30.00;59.50;;;;;;5063138;28;20650;-75
2021/07/12 10:06:52;;;;;;;3.67;3.58;;;30.10;57.60;;;;;;5054644;28;20195;-75
2021/07/12 10:09:22;;;;;;;4.43;4.28;;;30.30;58.70;;;;;;5062516;28;20735;-75
2021/07/12 10:11:53;;;;;;;5.22;3.88;;;30.40;58.80;;;;;;5054985;28;20184;-75
2021/07/12 10:14:20;;;;;;;4.43;3.63;;;30.60;59.40;;;;;;5059356;28;20188;-75
2021/07/12 10:16:46;;;;;;;3.58;3.35;;;30.90;57.80;;;;;;5057131;28;20188;-74
2021/07/12 10:19:12;;;;;;;3.80;3.45;;;31.10;56.90;;;;;;5061447;28;20669;-75
2021/07/12 10:21:58;;;;;;;3.95;3.70;;;31.40;55.40;;;;;;5065918;28;20277;-75
2021/07/12 10:24:34;;;;;;;5.35;3.97;;;31.90;55.20;;;;;;5057022;28;20199;-75
2021/07/12 10:27:01;;;;;;;3.63;3.38;;;32.30;55.40;;;;;;5062377;28;20239;-75
2021/07/12 10:29:32;;;;;;;3.47;3.38;;;32.50;52.60;;;;;;5053728;28;20194;-76
2021/07/12 10:32:04;;;;;;;4.43;4.20;;;32.70;53.00;;;;;;5065822;28;20240;-75
2021/07/12 10:34:49;;;;;;;4.03;3.72;;;32.90;52.70;;;;;;5065922;28;20206;-75
2021/07/12 10:37:17;;;;;;;3.58;3.47;;;33.10;52.70;;;;;;5055557;28;20186;-75
2021/07/12 10:40:12;;;;;;;4.47;4.07;;;33.50;52.80;;;;;;5065717;28;20297;-75
2021/07/12 10:42:43;;;;;;;4.57;4.30;;;34.10;53.40;;;;;;5066350;28;20233;-75
2021/07/12 10:45:20;;;;;;;4.63;4.32;;;34.80;52.60;;;;;;5052804;28;20183;-75
2021/07/12 10:47:57;;;;;;;4.88;4.15;;;35.40;52.60;;;;;;5056016;28;20246;-75
2021/07/12 10:50:36;;;;;;;3.88;3.58;;;35.90;50.60;;;;;;5050760;28;20692;-75
2021/07/12 10:53:22;;;;;;;5.25;3.78;;;36.30;49.30;;;;;;5065360;28;20202;-75
2021/07/12 10:56:11;;;;;;;4.70;4.47;;;36.70;48.40;;;;;;5022704;28;20203;-75
2021/07/12 10:58:39;;;;;;;4.50;4.25;;;37.00;48.30;;;;;;5022873;28;20864;-76
2021/07/12 11:01:07;;;;;;;4.55;4.45;;;37.20;50.00;;;;;;5022252;28;20216;-75
2021/07/12 11:03:45;;;;;;;4.65;4.45;;;37.40;49.70;;;;;;5020465;28;20188;-75
2021/07/12 11:06:16;;;;;;;4.30;4.00;;;37.70;49.10;;;;;;5022017;28;20245;-75
2021/07/12 11:09:04;;;;;;;3.90;3.80;;;38.00;50.00;;;;;;5022329;28;20192;-76
2021/07/12 11:11:30;;;;;;;4.40;4.30;;;38.50;49.70;;;;;;5019177;28;20231;-75
2021/07/12 11:14:05;;;;;;;5.35;3.83;;;38.50;48.00;;;;;;5027694;28;20225;-75
2021/07/12 11:16:45;;;;;;;3.85;3.75;;;38.10;47.60;;;;;;5016826;28;20665;-75
2021/07/12 11:19:32;;;;;;;3.85;3.75;;;37.70;46.30;;;;;;5024702;28;20231;-75
2021/07/12 11:22:13;;;;;;;4.28;3.90;;;37.30;47.50;;;;;;5026003;28;20219;-75
2021/07/12 11:24:58;;;;;;;3.90;3.60;;;36.90;48.30;;;;;;5022972;28;20704;-75
2021/07/12 11:27:34;;;;;;;4.45;4.10;;;37.10;48.00;;;;;;5019296;28;20713;-75
2021/07/12 11:30:26;;;;;;;3.50;3.40;;;37.40;48.40;;;;;;5026251;28;20285;-75
2021/07/12 11:32:53;;;;;;;3.63;3.33;;;37.60;47.90;;;;;;5037271;28;20198;-75
2021/07/12 11:35:19;;;;;;;3.35;3.25;;;37.60;48.20;;;;;;5065270;28;20183;-75
2021/07/12 11:37:45;;;;;;;3.85;3.65;;;37.20;47.30;;;;;;5055617;28;20622;-75
2021/07/12 11:40:11;;;;;;;3.38;3.17;;;36.60;48.70;;;;;;5061451;28;20211;-75
2021/07/12 11:42:56;;;;;;;3.47;3.38;;;36.30;47.60;;;;;;5063374;28;20227;-75
2021/07/12 11:45:25;;;;;;;7.57;3.28;;;36.60;48.30;;;;;;5055703;28;20183;-75
2021/07/12 11:47:57;;;;;;;2.90;2.90;;;37.10;46.70;;;;;;5061911;28;20177;-75
2021/07/12 11:50:33;;;;;;;2.88;2.67;;;37.60;44.50;;;;;;5055192;28;20720;-75
2021/07/12 11:53:06;;;;;;;3.67;2.88;;;38.30;44.80;;;;;;5063891;28;20187;-75
2021/07/12 11:55:36;;;;;;;3.10;2.90;;;39.20;45.30;;;;;;5064162;28;20219;-74
2021/07/12 11:58:04;;;;;;;2.70;2.60;;;39.90;43.30;;;;;;5065088;28;20170;-74
2021/07/12 12:00:32;;;;;;;2.33;2.22;;;40.40;43.60;;;;;;5069951;28;20182;-74
2021/07/12 12:03:17;;;;;;;2.42;2.42;;;40.80;42.50;;;;;;5069315;28;20179;-75
2021/07/12 12:05:45;;;;;;;2.72;2.72;;;41.20;43.10;;;;;;5069588;28;20190;-75
2021/07/12 12:08:16;;;;;;;4.22;2.25;;;41.60;42.90;;;;;;5069822;28;20182;-75
2021/07/12 12:10:42;;;;;;;2.78;2.67;;;42.00;41.30;;;;;;5069836;28;20189;-75
2021/07/12 12:13:12;;;;;;;1.75;1.75;;;42.40;39.80;;;;;;5077242;28;20260;-75
2021/07/12 12:15:40;;;;;;;2.45;2.13;;;42.80;39.70;;;;;;5069582;28;20271;-75
2021/07/12 12:18:12;;;;;;;2.15;2.13;;;43.30;39.30;;;;;;5064810;28;20194;-75
2021/07/12 12:20:43;;;;;;;6.28;2.50;;;43.70;39.80;;;;;;5063235;28;20198;-75
2021/07/12 12:23:24;;;;;;;2.33;2.22;;;44.00;39.70;;;;;;5070049;28;20171;-75
2021/07/12 12:26:02;;;;;;;2.22;2.22;;;43.60;40.50;;;;;;5084491;28;20285;-75
2021/07/12 12:28:43;;;;;;;2.40;2.33;;;43.10;39.40;;;;;;5069164;28;20190;-75
2021/07/12 12:31:13;;;;;;;2.15;2.15;;;42.40;39.60;;;;;;5069321;28;20178;-75
2021/07/12 12:34:03;;;;;;;2.72;2.53;;;42.20;41.30;;;;;;5069103;28;20622;-75
2021/07/12 12:36:32;;;;;;;2.28;2.15;;;42.50;42.20;;;;;;5068160;28;20194;-75
2021/07/12 12:39:04;;;;;;;2.03;2.03;;;43.00;39.40;;;;;;5068173;28;20218;-75
2021/07/12 12:41:38;;;;;;;2.13;2.05;;;43.50;39.10;;;;;;5067742;28;20205;-75
2021/07/12 12:44:09;;;;;;;2.03;2.00;;;44.10;40.30;;;;;;5061636;28;20549;-76
2021/07/12 12:46:48;;;;;;;4.20;2.50;;;44.60;40.10;;;;;;5059399;28;20180;-75
2021/07/12 12:49:25;;;;;;;2.30;2.20;;;45.10;39.80;;;;;;5056850;28;20209;-75
2021/07/12 12:51:53;;;;;;;2.38;2.25;;;45.50;39.60;;;;;;5058306;28;20277;-75
2021/07/12 12:54:19;;;;;;;4.57;2.28;;;45.90;39.00;;;;;;5063097;28;20267;-75
2021/07/12 12:56:51;;;;;;;2.33;2.33;;;46.20;39.80;;;;;;5067191;28;20189;-75
2021/07/12 12:59:18;;;;;;;2.33;2.33;;;46.30;37.70;;;;;;5067607;28;20202;-75